sensor_id;sensor_type;location;lat;lon;timestamp;P1;durP1;ratioP1;P2;durP2;ratioP2
48588;SDS011;34369;51.174;6.738;2022-12-04T00:02:17;54.13;;;49.73;;
48588;SDS011;34369;51.174;6.738;2022-12-04T00:04:53;52.20;;;47.80;;
48588;SDS011;34369;51.174;6.738;2022-12-04T00:07:26;53.73;;;49.23;;
48588;SDS011;34369;51.174;6.738;2022-12-04T00:09:59;52.13;;;47.80;;
48588;SDS011;34369;51.174;6.738;2022-12-04T00:12:33;50.67;;;46.40;;
48588;SDS011;34369;51.174;6.738;2022-12-04T00:15:06;53.90;;;49.47;;
48588;SDS011;34369;51.174;6.738;2022-12-04T00:17:40;52.53;;;48.03;;
48588;SDS011;34369;51.174;6.738;2022-12-04T00:20:14;55.00;;;50.37;;
48588;SDS011;34369;51.174;6.738;2022-12-04T00:22:47;53.90;;;49.40;;
48588;SDS011;34369;51.174;6.738;2022-12-04T00:25:22;55.30;;;50.73;;
48588;SDS011;34369;51.174;6.738;2022-12-04T00:27:54;54.17;;;49.53;;
48588;SDS011;34369;51.174;6.738;2022-12-04T00:30:27;52.97;;;48.47;;
48588;SDS011;34369;51.174;6.738;2022-12-04T00:33:02;52.38;;;47.92;;
48588;SDS011;34369;51.174;6.738;2022-12-04T00:35:38;53.20;;;48.73;;
48588;SDS011;34369;51.174;6.738;2022-12-04T00:38:11;52.27;;;47.77;;
48588;SDS011;34369;51.174;6.738;2022-12-04T00:40:47;52.23;;;47.90;;
48588;SDS011;34369;51.174;6.738;2022-12-04T00:43:20;49.63;;;45.47;;
48588;SDS011;34369;51.174;6.738;2022-12-04T00:45:55;52.70;;;48.13;;
48588;SDS011;34369;51.174;6.738;2022-12-04T00:48:28;52.80;;;48.17;;
48588;SDS011;34369;51.174;6.738;2022-12-04T00:51:03;54.73;;;50.00;;
48588;SDS011;34369;51.174;6.738;2022-12-04T00:53:38;50.80;;;46.50;;
48588;SDS011;34369;51.174;6.738;2022-12-04T00:56:13;54.10;;;49.00;;
48588;SDS011;34369;51.174;6.738;2022-12-04T00:58:50;53.63;;;49.13;;
48588;SDS011;34369;51.174;6.738;2022-12-04T01:01:24;52.55;;;47.90;;
48588;SDS011;34369;51.174;6.738;2022-12-04T01:03:57;57.00;;;52.30;;
48588;SDS011;34369;51.174;6.738;2022-12-04T01:06:32;54.40;;;49.67;;
48588;SDS011;34369;51.174;6.738;2022-12-04T01:09:05;54.33;;;49.80;;
48588;SDS011;34369;51.174;6.738;2022-12-04T01:11:37;54.53;;;49.93;;
48588;SDS011;34369;51.174;6.738;2022-12-04T01:14:11;52.90;;;48.37;;
48588;SDS011;34369;51.174;6.738;2022-12-04T01:16:46;56.17;;;51.27;;
48588;SDS011;34369;51.174;6.738;2022-12-04T01:19:22;55.63;;;50.97;;
48588;SDS011;34369;51.174;6.738;2022-12-04T01:21:55;58.97;;;53.90;;
48588;SDS011;34369;51.174;6.738;2022-12-04T01:24:27;56.37;;;51.67;;
48588;SDS011;34369;51.174;6.738;2022-12-04T01:27:00;56.73;;;52.03;;
48588;SDS011;34369;51.174;6.738;2022-12-04T01:29:34;55.50;;;50.83;;
48588;SDS011;34369;51.174;6.738;2022-12-04T01:32:06;57.40;;;52.50;;
48588;SDS011;34369;51.174;6.738;2022-12-04T01:34:38;54.87;;;50.07;;
48588;SDS011;34369;51.174;6.738;2022-12-04T01:37:14;54.17;;;49.50;;
48588;SDS011;34369;51.174;6.738;2022-12-04T01:39:47;52.53;;;47.83;;
48588;SDS011;34369;51.174;6.738;2022-12-04T01:42:19;52.93;;;48.53;;
48588;SDS011;34369;51.174;6.738;2022-12-04T01:48:10;57.17;;;52.17;;
48588;SDS011;34369;51.174;6.738;2022-12-04T01:50:51;55.27;;;50.57;;
48588;SDS011;34369;51.174;6.738;2022-12-04T01:53:32;55.00;;;50.20;;
48588;SDS011;34369;51.174;6.738;2022-12-04T01:56:09;57.07;;;52.17;;
48588;SDS011;34369;51.174;6.738;2022-12-04T01:58:42;54.83;;;50.07;;
48588;SDS011;34369;51.174;6.738;2022-12-04T02:01:19;55.60;;;50.87;;
48588;SDS011;34369;51.174;6.738;2022-12-04T02:03:51;58.03;;;53.07;;
48588;SDS011;34369;51.174;6.738;2022-12-04T02:06:25;57.10;;;52.30;;
48588;SDS011;34369;51.174;6.738;2022-12-04T02:09:02;56.97;;;52.10;;
48588;SDS011;34369;51.174;6.738;2022-12-04T02:11:37;57.10;;;52.30;;
48588;SDS011;34369;51.174;6.738;2022-12-04T02:14:18;55.13;;;50.47;;
48588;SDS011;34369;51.174;6.738;2022-12-04T02:17:00;54.30;;;49.80;;
48588;SDS011;34369;51.174;6.738;2022-12-04T02:19:48;54.80;;;50.15;;
48588;SDS011;34369;51.174;6.738;2022-12-04T02:22:44;57.37;;;52.57;;
48588;SDS011;34369;51.174;6.738;2022-12-04T02:25:38;55.83;;;51.17;;
48588;SDS011;34369;51.174;6.738;2022-12-04T02:28:27;54.67;;;49.87;;
48588;SDS011;34369;51.174;6.738;2022-12-04T02:31:07;55.73;;;51.17;;
48588;SDS011;34369;51.174;6.738;2022-12-04T02:33:45;58.67;;;53.57;;
48588;SDS011;34369;51.174;6.738;2022-12-04T02:36:26;55.43;;;50.73;;
48588;SDS011;34369;51.174;6.738;2022-12-04T02:39:03;53.70;;;49.20;;
48588;SDS011;34369;51.174;6.738;2022-12-04T02:41:41;51.90;;;47.30;;
48588;SDS011;34369;51.174;6.738;2022-12-04T02:44:20;54.67;;;50.10;;
48588;SDS011;34369;51.174;6.738;2022-12-04T02:46:58;55.50;;;50.80;;
48588;SDS011;34369;51.174;6.738;2022-12-04T02:49:34;53.80;;;49.30;;
48588;SDS011;34369;51.174;6.738;2022-12-04T02:52:13;55.00;;;50.20;;
48588;SDS011;34369;51.174;6.738;2022-12-04T02:54:53;55.20;;;50.47;;
48588;SDS011;34369;51.174;6.738;2022-12-04T02:57:34;54.57;;;50.07;;
48588;SDS011;34369;51.174;6.738;2022-12-04T03:00:20;55.33;;;50.53;;
48588;SDS011;34369;51.174;6.738;2022-12-04T03:02:53;56.93;;;52.07;;
48588;SDS011;34369;51.174;6.738;2022-12-04T03:05:31;53.65;;;48.78;;
48588;SDS011;34369;51.174;6.738;2022-12-04T03:08:09;56.50;;;51.53;;
48588;SDS011;34369;51.174;6.738;2022-12-04T03:10:48;53.07;;;48.60;;
48588;SDS011;34369;51.174;6.738;2022-12-04T03:13:26;56.80;;;52.20;;
48588;SDS011;34369;51.174;6.738;2022-12-04T03:16:06;54.33;;;49.47;;
48588;SDS011;34369;51.174;6.738;2022-12-04T03:18:45;57.30;;;52.27;;
48588;SDS011;34369;51.174;6.738;2022-12-04T03:21:21;57.05;;;52.10;;
48588;SDS011;34369;51.174;6.738;2022-12-04T03:24:04;50.03;;;45.50;;
48588;SDS011;34369;51.174;6.738;2022-12-04T03:26:44;54.10;;;49.40;;
48588;SDS011;34369;51.174;6.738;2022-12-04T03:29:21;56.38;;;51.55;;
48588;SDS011;34369;51.174;6.738;2022-12-04T03:32:01;54.13;;;49.63;;
48588;SDS011;34369;51.174;6.738;2022-12-04T03:34:41;54.80;;;50.00;;
48588;SDS011;34369;51.174;6.738;2022-12-04T03:37:22;55.60;;;50.60;;
48588;SDS011;34369;51.174;6.738;2022-12-04T03:39:59;54.30;;;49.63;;
48588;SDS011;34369;51.174;6.738;2022-12-04T03:42:40;54.70;;;49.80;;
48588;SDS011;34369;51.174;6.738;2022-12-04T03:45:19;55.23;;;50.37;;
48588;SDS011;34369;51.174;6.738;2022-12-04T03:48:00;53.73;;;48.87;;
48588;SDS011;34369;51.174;6.738;2022-12-04T03:50:38;55.13;;;50.57;;
48588;SDS011;34369;51.174;6.738;2022-12-04T03:53:19;56.33;;;51.53;;
48588;SDS011;34369;51.174;6.738;2022-12-04T03:56:00;56.43;;;51.43;;
48588;SDS011;34369;51.174;6.738;2022-12-04T03:58:43;55.47;;;50.67;;
48588;SDS011;34369;51.174;6.738;2022-12-04T04:01:19;50.20;;;45.88;;
48588;SDS011;34369;51.174;6.738;2022-12-04T04:03:59;53.57;;;48.97;;
48588;SDS011;34369;51.174;6.738;2022-12-04T04:06:38;55.70;;;50.53;;
48588;SDS011;34369;51.174;6.738;2022-12-04T04:09:20;54.83;;;50.10;;
48588;SDS011;34369;51.174;6.738;2022-12-04T04:11:56;55.30;;;50.60;;
48588;SDS011;34369;51.174;6.738;2022-12-04T04:14:37;57.20;;;52.00;;
48588;SDS011;34369;51.174;6.738;2022-12-04T04:17:32;54.70;;;50.03;;
48588;SDS011;34369;51.174;6.738;2022-12-04T04:20:33;54.80;;;50.07;;
48588;SDS011;34369;51.174;6.738;2022-12-04T04:23:28;55.50;;;50.80;;
48588;SDS011;34369;51.174;6.738;2022-12-04T04:26:23;54.93;;;50.17;;
48588;SDS011;34369;51.174;6.738;2022-12-04T04:28:58;51.43;;;47.00;;
48588;SDS011;34369;51.174;6.738;2022-12-04T04:31:32;55.60;;;51.10;;
48588;SDS011;34369;51.174;6.738;2022-12-04T04:34:12;54.83;;;50.20;;
48588;SDS011;34369;51.174;6.738;2022-12-04T04:36:55;51.17;;;46.63;;
48588;SDS011;34369;51.174;6.738;2022-12-04T04:39:37;53.83;;;49.20;;
48588;SDS011;34369;51.174;6.738;2022-12-04T04:42:20;55.03;;;50.30;;
48588;SDS011;34369;51.174;6.738;2022-12-04T04:44:59;53.27;;;48.77;;
48588;SDS011;34369;51.174;6.738;2022-12-04T04:47:38;54.47;;;49.43;;
48588;SDS011;34369;51.174;6.738;2022-12-04T04:50:15;52.13;;;47.73;;
48588;SDS011;34369;51.174;6.738;2022-12-04T04:52:53;55.57;;;50.87;;
48588;SDS011;34369;51.174;6.738;2022-12-04T04:55:30;56.57;;;51.77;;
48588;SDS011;34369;51.174;6.738;2022-12-04T04:58:04;57.80;;;52.73;;
48588;SDS011;34369;51.174;6.738;2022-12-04T05:00:39;56.57;;;51.47;;
48588;SDS011;34369;51.174;6.738;2022-12-04T05:03:11;49.00;;;44.63;;
48588;SDS011;34369;51.174;6.738;2022-12-04T05:05:43;53.70;;;49.13;;
48588;SDS011;34369;51.174;6.738;2022-12-04T05:08:17;57.10;;;52.17;;
48588;SDS011;34369;51.174;6.738;2022-12-04T05:10:51;58.20;;;53.13;;
48588;SDS011;34369;51.174;6.738;2022-12-04T05:13:23;53.57;;;48.97;;
48588;SDS011;34369;51.174;6.738;2022-12-04T05:15:56;54.03;;;49.43;;
48588;SDS011;34369;51.174;6.738;2022-12-04T05:18:30;57.07;;;52.37;;
48588;SDS011;34369;51.174;6.738;2022-12-04T05:21:04;56.50;;;51.87;;
48588;SDS011;34369;51.174;6.738;2022-12-04T05:23:37;57.63;;;52.90;;
48588;SDS011;34369;51.174;6.738;2022-12-04T05:26:09;54.07;;;49.43;;
48588;SDS011;34369;51.174;6.738;2022-12-04T05:28:44;53.10;;;48.63;;
48588;SDS011;34369;51.174;6.738;2022-12-04T05:31:16;54.30;;;49.80;;
48588;SDS011;34369;51.174;6.738;2022-12-04T05:33:49;52.27;;;47.93;;
48588;SDS011;34369;51.174;6.738;2022-12-04T05:36:21;57.10;;;52.30;;
48588;SDS011;34369;51.174;6.738;2022-12-04T05:38:55;55.30;;;50.77;;
48588;SDS011;34369;51.174;6.738;2022-12-04T05:41:28;54.77;;;50.27;;
48588;SDS011;34369;51.174;6.738;2022-12-04T05:43:59;56.13;;;51.47;;
48588;SDS011;34369;51.174;6.738;2022-12-04T05:46:32;57.67;;;52.80;;
48588;SDS011;34369;51.174;6.738;2022-12-04T05:49:04;56.00;;;51.50;;
48588;SDS011;34369;51.174;6.738;2022-12-04T05:51:36;50.30;;;46.07;;
48588;SDS011;34369;51.174;6.738;2022-12-04T05:54:10;52.10;;;47.93;;
48588;SDS011;34369;51.174;6.738;2022-12-04T05:56:42;51.80;;;47.37;;
48588;SDS011;34369;51.174;6.738;2022-12-04T05:59:15;50.20;;;46.10;;
48588;SDS011;34369;51.174;6.738;2022-12-04T06:01:47;51.90;;;47.43;;
48588;SDS011;34369;51.174;6.738;2022-12-04T06:04:19;53.53;;;49.33;;
48588;SDS011;34369;51.174;6.738;2022-12-04T06:06:52;55.00;;;50.63;;
48588;SDS011;34369;51.174;6.738;2022-12-04T06:09:26;54.47;;;50.10;;
48588;SDS011;34369;51.174;6.738;2022-12-04T06:12:02;51.47;;;47.30;;
48588;SDS011;34369;51.174;6.738;2022-12-04T06:14:36;49.80;;;45.70;;
48588;SDS011;34369;51.174;6.738;2022-12-04T06:17:08;49.80;;;45.50;;
48588;SDS011;34369;51.174;6.738;2022-12-04T06:19:40;53.17;;;49.10;;
48588;SDS011;34369;51.174;6.738;2022-12-04T06:22:13;49.23;;;45.23;;
48588;SDS011;34369;51.174;6.738;2022-12-04T06:24:47;49.33;;;45.27;;
48588;SDS011;34369;51.174;6.738;2022-12-04T06:27:20;50.17;;;46.27;;
48588;SDS011;34369;51.174;6.738;2022-12-04T06:29:52;51.60;;;47.70;;
48588;SDS011;34369;51.174;6.738;2022-12-04T06:32:24;51.77;;;47.87;;
48588;SDS011;34369;51.174;6.738;2022-12-04T06:34:56;49.70;;;45.60;;
48588;SDS011;34369;51.174;6.738;2022-12-04T06:37:28;49.60;;;45.50;;
48588;SDS011;34369;51.174;6.738;2022-12-04T06:40:02;52.10;;;48.20;;
48588;SDS011;34369;51.174;6.738;2022-12-04T06:42:37;45.90;;;42.13;;
48588;SDS011;34369;51.174;6.738;2022-12-04T06:45:10;48.97;;;45.10;;
48588;SDS011;34369;51.174;6.738;2022-12-04T06:47:42;48.70;;;44.90;;
48588;SDS011;34369;51.174;6.738;2022-12-04T06:50:15;51.40;;;47.47;;
48588;SDS011;34369;51.174;6.738;2022-12-04T06:52:48;50.97;;;46.97;;
48588;SDS011;34369;51.174;6.738;2022-12-04T06:55:21;49.70;;;45.77;;
48588;SDS011;34369;51.174;6.738;2022-12-04T06:57:55;51.67;;;47.43;;
48588;SDS011;34369;51.174;6.738;2022-12-04T07:00:29;48.53;;;44.93;;
48588;SDS011;34369;51.174;6.738;2022-12-04T07:03:02;50.37;;;46.37;;
48588;SDS011;34369;51.174;6.738;2022-12-04T07:05:34;49.40;;;45.37;;
48588;SDS011;34369;51.174;6.738;2022-12-04T07:08:07;50.20;;;46.40;;
48588;SDS011;34369;51.174;6.738;2022-12-04T07:10:41;48.67;;;44.70;;
48588;SDS011;34369;51.174;6.738;2022-12-04T07:13:14;51.93;;;48.00;;
48588;SDS011;34369;51.174;6.738;2022-12-04T07:15:48;52.63;;;48.63;;
48588;SDS011;34369;51.174;6.738;2022-12-04T07:18:21;46.40;;;42.53;;
48588;SDS011;34369;51.174;6.738;2022-12-04T07:20:53;50.93;;;47.03;;
48588;SDS011;34369;51.174;6.738;2022-12-04T07:23:29;51.70;;;47.83;;
48588;SDS011;34369;51.174;6.738;2022-12-04T07:26:08;49.40;;;45.40;;
48588;SDS011;34369;51.174;6.738;2022-12-04T07:28:45;50.23;;;46.53;;
48588;SDS011;34369;51.174;6.738;2022-12-04T07:31:19;50.43;;;46.53;;
48588;SDS011;34369;51.174;6.738;2022-12-04T07:33:54;47.67;;;44.17;;
48588;SDS011;34369;51.174;6.738;2022-12-04T07:36:28;48.20;;;44.70;;
48588;SDS011;34369;51.174;6.738;2022-12-04T07:39:01;47.83;;;44.23;;
48588;SDS011;34369;51.174;6.738;2022-12-04T07:41:34;48.47;;;44.83;;
48588;SDS011;34369;51.174;6.738;2022-12-04T07:44:07;48.40;;;44.60;;
48588;SDS011;34369;51.174;6.738;2022-12-04T07:46:39;47.57;;;43.87;;
48588;SDS011;34369;51.174;6.738;2022-12-04T07:49:12;48.47;;;44.50;;
48588;SDS011;34369;51.174;6.738;2022-12-04T07:51:44;45.67;;;42.40;;
48588;SDS011;34369;51.174;6.738;2022-12-04T07:54:17;46.57;;;43.17;;
48588;SDS011;34369;51.174;6.738;2022-12-04T07:56:50;46.87;;;43.47;;
48588;SDS011;34369;51.174;6.738;2022-12-04T07:59:22;45.67;;;42.27;;
48588;SDS011;34369;51.174;6.738;2022-12-04T08:01:57;49.60;;;45.83;;
48588;SDS011;34369;51.174;6.738;2022-12-04T08:04:30;47.77;;;44.27;;
48588;SDS011;34369;51.174;6.738;2022-12-04T08:07:02;47.97;;;44.47;;
48588;SDS011;34369;51.174;6.738;2022-12-04T08:09:35;47.97;;;44.37;;
48588;SDS011;34369;51.174;6.738;2022-12-04T08:12:10;42.03;;;39.13;;
48588;SDS011;34369;51.174;6.738;2022-12-04T08:14:42;44.93;;;41.80;;
48588;SDS011;34369;51.174;6.738;2022-12-04T08:17:16;46.30;;;43.10;;
48588;SDS011;34369;51.174;6.738;2022-12-04T08:19:49;46.53;;;43.30;;
48588;SDS011;34369;51.174;6.738;2022-12-04T08:22:22;44.07;;;41.07;;
48588;SDS011;34369;51.174;6.738;2022-12-04T08:24:55;44.60;;;41.50;;
48588;SDS011;34369;51.174;6.738;2022-12-04T08:27:29;44.43;;;40.87;;
48588;SDS011;34369;51.174;6.738;2022-12-04T08:30:01;45.87;;;42.77;;
48588;SDS011;34369;51.174;6.738;2022-12-04T08:32:36;44.73;;;41.70;;
48588;SDS011;34369;51.174;6.738;2022-12-04T08:35:09;47.63;;;44.43;;
48588;SDS011;34369;51.174;6.738;2022-12-04T08:37:41;45.00;;;41.97;;
48588;SDS011;34369;51.174;6.738;2022-12-04T08:40:14;43.40;;;40.30;;
48588;SDS011;34369;51.174;6.738;2022-12-04T08:42:48;43.77;;;40.77;;
48588;SDS011;34369;51.174;6.738;2022-12-04T08:45:22;45.50;;;42.30;;
48588;SDS011;34369;51.174;6.738;2022-12-04T08:47:57;44.63;;;41.53;;
48588;SDS011;34369;51.174;6.738;2022-12-04T08:50:31;43.77;;;40.77;;
48588;SDS011;34369;51.174;6.738;2022-12-04T08:53:04;46.53;;;43.33;;
48588;SDS011;34369;51.174;6.738;2022-12-04T08:55:37;46.97;;;43.87;;
48588;SDS011;34369;51.174;6.738;2022-12-04T08:58:11;46.43;;;43.13;;
48588;SDS011;34369;51.174;6.738;2022-12-04T09:00:44;45.00;;;42.00;;
48588;SDS011;34369;51.174;6.738;2022-12-04T09:03:18;47.27;;;44.17;;
48588;SDS011;34369;51.174;6.738;2022-12-04T09:05:51;43.50;;;40.47;;
48588;SDS011;34369;51.174;6.738;2022-12-04T09:08:30;45.50;;;42.27;;
48588;SDS011;34369;51.174;6.738;2022-12-04T09:11:04;44.17;;;41.27;;
48588;SDS011;34369;51.174;6.738;2022-12-04T09:13:44;46.90;;;43.67;;
48588;SDS011;34369;51.174;6.738;2022-12-04T09:16:18;45.72;;;42.60;;
48588;SDS011;34369;51.174;6.738;2022-12-04T09:18:55;44.47;;;41.47;;
48588;SDS011;34369;51.174;6.738;2022-12-04T09:21:27;44.60;;;41.50;;
48588;SDS011;34369;51.174;6.738;2022-12-04T09:23:59;44.17;;;41.17;;
48588;SDS011;34369;51.174;6.738;2022-12-04T09:26:32;43.50;;;40.50;;
48588;SDS011;34369;51.174;6.738;2022-12-04T09:29:07;45.83;;;42.47;;
48588;SDS011;34369;51.174;6.738;2022-12-04T09:31:42;48.70;;;45.50;;
48588;SDS011;34369;51.174;6.738;2022-12-04T09:34:14;48.30;;;45.07;;
48588;SDS011;34369;51.174;6.738;2022-12-04T09:36:47;46.20;;;43.00;;
48588;SDS011;34369;51.174;6.738;2022-12-04T09:39:19;44.20;;;41.20;;
48588;SDS011;34369;51.174;6.738;2022-12-04T09:41:55;44.83;;;41.73;;
48588;SDS011;34369;51.174;6.738;2022-12-04T09:44:55;44.70;;;41.70;;
48588;SDS011;34369;51.174;6.738;2022-12-04T09:47:36;48.20;;;44.90;;
48588;SDS011;34369;51.174;6.738;2022-12-04T09:50:14;44.57;;;41.37;;
48588;SDS011;34369;51.174;6.738;2022-12-04T09:52:52;47.70;;;44.60;;
48588;SDS011;34369;51.174;6.738;2022-12-04T09:55:30;47.20;;;43.93;;
48588;SDS011;34369;51.174;6.738;2022-12-04T09:58:11;42.73;;;39.83;;
48588;SDS011;34369;51.174;6.738;2022-12-04T10:00:49;43.53;;;40.53;;
48588;SDS011;34369;51.174;6.738;2022-12-04T10:03:24;45.07;;;41.83;;
48588;SDS011;34369;51.174;6.738;2022-12-04T10:06:00;45.10;;;42.00;;
48588;SDS011;34369;51.174;6.738;2022-12-04T10:08:41;46.97;;;43.67;;
48588;SDS011;34369;51.174;6.738;2022-12-04T10:11:19;44.72;;;41.60;;
48588;SDS011;34369;51.174;6.738;2022-12-04T10:14:03;44.50;;;41.30;;
48588;SDS011;34369;51.174;6.738;2022-12-04T10:16:54;44.97;;;41.97;;
48588;SDS011;34369;51.174;6.738;2022-12-04T10:19:48;45.77;;;42.57;;
48588;SDS011;34369;51.174;6.738;2022-12-04T10:22:28;43.00;;;39.93;;
48588;SDS011;34369;51.174;6.738;2022-12-04T10:25:10;43.80;;;40.77;;
48588;SDS011;34369;51.174;6.738;2022-12-04T10:27:50;45.30;;;42.30;;
48588;SDS011;34369;51.174;6.738;2022-12-04T10:30:31;47.27;;;44.07;;
48588;SDS011;34369;51.174;6.738;2022-12-04T10:36:08;46.43;;;43.23;;
48588;SDS011;34369;51.174;6.738;2022-12-04T10:38:44;44.43;;;41.37;;
48588;SDS011;34369;51.174;6.738;2022-12-04T10:41:24;43.70;;;40.67;;
48588;SDS011;34369;51.174;6.738;2022-12-04T10:44:01;46.17;;;43.00;;
48588;SDS011;34369;51.174;6.738;2022-12-04T10:46:35;48.00;;;44.70;;
48588;SDS011;34369;51.174;6.738;2022-12-04T10:49:15;43.93;;;40.93;;
48588;SDS011;34369;51.174;6.738;2022-12-04T10:51:50;44.53;;;41.43;;
48588;SDS011;34369;51.174;6.738;2022-12-04T10:54:26;44.83;;;41.77;;
48588;SDS011;34369;51.174;6.738;2022-12-04T10:57:04;45.87;;;42.67;;
48588;SDS011;34369;51.174;6.738;2022-12-04T11:02:20;46.87;;;43.50;;
48588;SDS011;34369;51.174;6.738;2022-12-04T11:04:58;47.90;;;44.80;;
48588;SDS011;34369;51.174;6.738;2022-12-04T11:07:33;45.70;;;42.60;;
48588;SDS011;34369;51.174;6.738;2022-12-04T11:10:24;44.20;;;41.20;;
48588;SDS011;34369;51.174;6.738;2022-12-04T11:13:05;46.07;;;42.87;;
48588;SDS011;34369;51.174;6.738;2022-12-04T11:15:47;43.47;;;40.47;;
48588;SDS011;34369;51.174;6.738;2022-12-04T11:21:00;44.47;;;41.30;;
48588;SDS011;34369;51.174;6.738;2022-12-04T11:23:40;43.90;;;40.60;;
48588;SDS011;34369;51.174;6.738;2022-12-04T11:26:27;44.63;;;41.53;;
48588;SDS011;34369;51.174;6.738;2022-12-04T11:29:03;45.80;;;42.50;;
48588;SDS011;34369;51.174;6.738;2022-12-04T11:31:38;44.57;;;41.27;;
48588;SDS011;34369;51.174;6.738;2022-12-04T11:34:19;45.83;;;42.63;;
48588;SDS011;34369;51.174;6.738;2022-12-04T11:36:56;44.27;;;41.17;;
48588;SDS011;34369;51.174;6.738;2022-12-04T11:39:30;44.43;;;41.27;;
48588;SDS011;34369;51.174;6.738;2022-12-04T11:44:49;43.70;;;40.60;;
48588;SDS011;34369;51.174;6.738;2022-12-04T11:47:25;44.25;;;41.17;;
48588;SDS011;34369;51.174;6.738;2022-12-04T11:50:04;42.13;;;39.13;;
48588;SDS011;34369;51.174;6.738;2022-12-04T11:52:49;45.03;;;41.93;;
48588;SDS011;34369;51.174;6.738;2022-12-04T11:55:35;43.27;;;40.17;;
48588;SDS011;34369;51.174;6.738;2022-12-04T11:58:26;44.70;;;41.50;;
48588;SDS011;34369;51.174;6.738;2022-12-04T12:01:25;43.67;;;40.67;;
48588;SDS011;34369;51.174;6.738;2022-12-04T12:04:23;44.97;;;41.77;;
48588;SDS011;34369;51.174;6.738;2022-12-04T12:07:27;45.00;;;41.80;;
48588;SDS011;34369;51.174;6.738;2022-12-04T12:10:15;46.13;;;42.90;;
48588;SDS011;34369;51.174;6.738;2022-12-04T12:12:55;45.30;;;42.10;;
48588;SDS011;34369;51.174;6.738;2022-12-04T12:15:40;44.20;;;40.90;;
48588;SDS011;34369;51.174;6.738;2022-12-04T12:18:26;44.80;;;41.60;;
48588;SDS011;34369;51.174;6.738;2022-12-04T12:21:15;45.67;;;42.47;;
48588;SDS011;34369;51.174;6.738;2022-12-04T12:24:03;44.93;;;41.80;;
48588;SDS011;34369;51.174;6.738;2022-12-04T12:26:53;44.93;;;41.70;;
48588;SDS011;34369;51.174;6.738;2022-12-04T12:29:45;43.10;;;39.93;;
48588;SDS011;34369;51.174;6.738;2022-12-04T12:32:37;45.97;;;42.83;;
48588;SDS011;34369;51.174;6.738;2022-12-04T12:35:23;44.00;;;40.90;;
48588;SDS011;34369;51.174;6.738;2022-12-04T12:38:06;44.43;;;41.37;;
48588;SDS011;34369;51.174;6.738;2022-12-04T12:40:45;43.20;;;40.20;;
48588;SDS011;34369;51.174;6.738;2022-12-04T12:43:25;41.30;;;38.30;;
48588;SDS011;34369;51.174;6.738;2022-12-04T12:46:01;47.77;;;44.37;;
48588;SDS011;34369;51.174;6.738;2022-12-04T12:48:42;44.50;;;41.40;;
48588;SDS011;34369;51.174;6.738;2022-12-04T12:51:29;45.43;;;42.23;;
48588;SDS011;34369;51.174;6.738;2022-12-04T12:54:10;47.10;;;43.70;;
48588;SDS011;34369;51.174;6.738;2022-12-04T12:56:48;45.10;;;41.93;;
48588;SDS011;34369;51.174;6.738;2022-12-04T12:59:28;44.30;;;41.17;;
48588;SDS011;34369;51.174;6.738;2022-12-04T13:02:05;45.87;;;42.60;;
48588;SDS011;34369;51.174;6.738;2022-12-04T13:04:54;46.33;;;42.83;;
48588;SDS011;34369;51.174;6.738;2022-12-04T13:07:32;44.03;;;40.80;;
48588;SDS011;34369;51.174;6.738;2022-12-04T13:10:17;42.53;;;39.43;;
48588;SDS011;34369;51.174;6.738;2022-12-04T13:12:53;45.50;;;42.20;;
48588;SDS011;34369;51.174;6.738;2022-12-04T13:15:40;45.60;;;42.30;;
48588;SDS011;34369;51.174;6.738;2022-12-04T13:20:54;46.00;;;42.80;;
48588;SDS011;34369;51.174;6.738;2022-12-04T13:23:42;45.77;;;42.37;;
48588;SDS011;34369;51.174;6.738;2022-12-04T13:26:28;44.60;;;41.40;;
48588;SDS011;34369;51.174;6.738;2022-12-04T13:29:17;45.33;;;42.10;;
48588;SDS011;34369;51.174;6.738;2022-12-04T13:32:26;47.37;;;44.07;;
48588;SDS011;34369;51.174;6.738;2022-12-04T13:35:20;45.27;;;42.07;;
48588;SDS011;34369;51.174;6.738;2022-12-04T13:38:18;46.90;;;43.53;;
48588;SDS011;34369;51.174;6.738;2022-12-04T13:40:58;45.83;;;42.63;;
48588;SDS011;34369;51.174;6.738;2022-12-04T13:43:35;47.65;;;44.25;;
48588;SDS011;34369;51.174;6.738;2022-12-04T13:46:21;47.40;;;44.07;;
48588;SDS011;34369;51.174;6.738;2022-12-04T13:49:08;46.10;;;42.90;;
48588;SDS011;34369;51.174;6.738;2022-12-04T13:51:58;46.28;;;42.92;;
48588;SDS011;34369;51.174;6.738;2022-12-04T13:54:33;46.97;;;43.60;;
48588;SDS011;34369;51.174;6.738;2022-12-04T13:57:14;48.27;;;44.93;;
48588;SDS011;34369;51.174;6.738;2022-12-04T14:00:00;46.90;;;43.43;;
48588;SDS011;34369;51.174;6.738;2022-12-04T14:02:41;45.10;;;41.80;;
48588;SDS011;34369;51.174;6.738;2022-12-04T14:05:26;43.70;;;40.50;;
48588;SDS011;34369;51.174;6.738;2022-12-04T14:08:02;47.03;;;43.80;;
48588;SDS011;34369;51.174;6.738;2022-12-04T14:10:37;48.53;;;45.13;;
48588;SDS011;34369;51.174;6.738;2022-12-04T14:13:15;44.87;;;41.67;;
48588;SDS011;34369;51.174;6.738;2022-12-04T14:15:59;45.93;;;42.47;;
48588;SDS011;34369;51.174;6.738;2022-12-04T14:18:39;47.97;;;44.67;;
48588;SDS011;34369;51.174;6.738;2022-12-04T14:21:18;46.17;;;42.87;;
48588;SDS011;34369;51.174;6.738;2022-12-04T14:23:52;45.17;;;42.08;;
48588;SDS011;34369;51.174;6.738;2022-12-04T14:26:26;45.93;;;42.67;;
48588;SDS011;34369;51.174;6.738;2022-12-04T14:29:04;45.50;;;42.10;;
48588;SDS011;34369;51.174;6.738;2022-12-04T14:31:38;47.23;;;43.73;;
48588;SDS011;34369;51.174;6.738;2022-12-04T14:34:18;48.47;;;45.07;;
48588;SDS011;34369;51.174;6.738;2022-12-04T14:36:55;45.97;;;42.70;;
48588;SDS011;34369;51.174;6.738;2022-12-04T14:39:30;46.23;;;43.03;;
48588;SDS011;34369;51.174;6.738;2022-12-04T14:42:11;48.37;;;44.97;;
48588;SDS011;34369;51.174;6.738;2022-12-04T14:44:50;47.77;;;44.43;;
48588;SDS011;34369;51.174;6.738;2022-12-04T14:47:35;44.23;;;41.07;;
48588;SDS011;34369;51.174;6.738;2022-12-04T14:50:24;43.63;;;40.53;;
48588;SDS011;34369;51.174;6.738;2022-12-04T14:53:08;45.13;;;41.85;;
48588;SDS011;34369;51.174;6.738;2022-12-04T14:55:56;47.50;;;44.30;;
48588;SDS011;34369;51.174;6.738;2022-12-04T14:58:38;45.97;;;42.90;;
48588;SDS011;34369;51.174;6.738;2022-12-04T15:01:18;45.90;;;42.70;;
48588;SDS011;34369;51.174;6.738;2022-12-04T15:03:54;45.03;;;41.63;;
48588;SDS011;34369;51.174;6.738;2022-12-04T15:06:31;45.80;;;42.53;;
48588;SDS011;34369;51.174;6.738;2022-12-04T15:09:24;47.10;;;43.73;;
48588;SDS011;34369;51.174;6.738;2022-12-04T15:12:15;49.00;;;45.50;;
48588;SDS011;34369;51.174;6.738;2022-12-04T15:15:11;46.70;;;43.27;;
48588;SDS011;34369;51.174;6.738;2022-12-04T15:17:54;45.80;;;42.40;;
48588;SDS011;34369;51.174;6.738;2022-12-04T15:20:34;47.00;;;43.60;;
48588;SDS011;34369;51.174;6.738;2022-12-04T15:23:17;47.60;;;44.00;;
48588;SDS011;34369;51.174;6.738;2022-12-04T15:25:55;48.63;;;44.77;;
48588;SDS011;34369;51.174;6.738;2022-12-04T15:28:30;47.60;;;43.70;;
48588;SDS011;34369;51.174;6.738;2022-12-04T15:31:09;48.93;;;45.13;;
48588;SDS011;34369;51.174;6.738;2022-12-04T15:33:47;49.40;;;45.60;;
48588;SDS011;34369;51.174;6.738;2022-12-04T15:36:27;49.80;;;45.57;;
48588;SDS011;34369;51.174;6.738;2022-12-04T15:39:12;47.53;;;43.72;;
48588;SDS011;34369;51.174;6.738;2022-12-04T15:41:50;51.87;;;47.80;;